createdAt,value
2023-03-16T00:00:22.054Z,0.00
2023-03-16T00:01:22.147Z,0.00
2023-03-16T00:02:22.844Z,0.00
2023-03-16T00:03:22.117Z,0.00
2023-03-16T00:04:22.026Z,0.00
2023-03-16T00:05:22.002Z,0.00
2023-03-16T00:06:23.884Z,0.00
2023-03-16T00:07:22.007Z,0.00
2023-03-16T00:08:21.987Z,0.00
2023-03-16T00:09:23.104Z,0.00
2023-03-16T00:10:22.831Z,0.00
2023-03-16T00:11:21.984Z,0.00
2023-03-16T00:12:22.007Z,0.00
2023-03-16T00:13:21.905Z,0.00
2023-03-16T00:14:21.973Z,0.00
2023-03-16T00:15:21.903Z,0.00
2023-03-16T00:16:21.940Z,0.00
2023-03-16T00:17:21.877Z,0.00
2023-03-16T00:18:21.982Z,0.00
2023-03-16T00:19:21.876Z,0.00
2023-03-16T00:20:21.845Z,0.00
2023-03-16T00:21:21.842Z,0.00
2023-03-16T00:22:21.916Z,0.00
2023-03-16T00:23:21.820Z,0.00
2023-03-16T00:24:21.809Z,0.00
2023-03-16T00:25:21.818Z,0.00
2023-03-16T00:26:21.765Z,0.00
2023-03-16T00:27:21.795Z,0.00
2023-03-16T00:28:21.817Z,0.00
2023-03-16T00:29:21.808Z,0.00
2023-03-16T00:30:21.744Z,0.00
2023-03-16T00:31:21.754Z,0.00
2023-03-16T00:32:21.753Z,0.00
2023-03-16T00:33:22.097Z,0.00
2023-03-16T00:34:21.914Z,0.00
2023-03-16T00:35:21.781Z,0.00
2023-03-16T00:36:21.712Z,0.00
2023-03-16T00:37:21.805Z,0.00
2023-03-16T00:38:21.665Z,0.00
2023-03-16T00:39:21.657Z,0.00
2023-03-16T00:40:21.629Z,0.00
2023-03-16T00:41:21.642Z,0.00
2023-03-16T00:42:21.615Z,0.00
2023-03-16T00:43:21.612Z,0.00
2023-03-16T00:44:21.671Z,0.00
2023-03-16T00:45:22.402Z,0.00
2023-03-16T00:46:21.662Z,0.00
2023-03-16T00:47:21.547Z,0.00
2023-03-16T00:48:21.542Z,0.00
2023-03-16T00:49:21.578Z,0.00
2023-03-16T00:50:21.540Z,0.00
2023-03-16T00:51:21.534Z,0.00
2023-03-16T00:52:21.540Z,0.00
2023-03-16T00:53:21.490Z,0.00
2023-03-16T00:54:21.510Z,0.00
2023-03-16T00:55:21.608Z,0.00
2023-03-16T00:56:21.474Z,0.00
2023-03-16T00:57:21.557Z,0.00
2023-03-16T00:58:21.520Z,0.00
2023-03-16T00:59:21.471Z,0.00
2023-03-16T01:00:21.439Z,0.00
2023-03-16T01:01:21.491Z,0.00
2023-03-16T01:02:21.800Z,0.00
2023-03-16T01:03:21.615Z,0.00
2023-03-16T01:04:21.413Z,0.00
2023-03-16T01:05:21.396Z,0.00
2023-03-16T01:06:21.364Z,0.00
2023-03-16T01:07:21.381Z,0.00
2023-03-16T01:08:21.347Z,0.00
2023-03-16T01:09:22.185Z,0.00
2023-03-16T01:10:21.412Z,0.00
2023-03-16T01:11:22.212Z,0.00
2023-03-16T01:12:21.367Z,0.00
2023-03-16T01:13:21.332Z,0.00
2023-03-16T01:14:21.329Z,0.00
2023-03-16T01:15:21.278Z,0.00
2023-03-16T01:16:21.317Z,0.00
2023-03-16T01:17:21.347Z,0.00
2023-03-16T01:18:21.324Z,0.00
2023-03-16T01:19:21.253Z,0.00
2023-03-16T01:20:21.345Z,0.00
2023-03-16T01:21:21.234Z,0.00
2023-03-16T01:22:21.222Z,0.00
2023-03-16T01:23:21.247Z,0.00
2023-03-16T01:24:21.321Z,0.00
2023-03-16T01:25:21.207Z,0.00
2023-03-16T01:26:21.164Z,0.00
2023-03-16T01:27:21.176Z,0.00
2023-03-16T01:28:21.141Z,0.00
2023-03-16T01:29:21.259Z,0.00
2023-03-16T01:30:21.137Z,0.00
2023-03-16T01:31:21.402Z,0.00
2023-03-16T01:32:21.208Z,0.00
2023-03-16T01:33:21.117Z,0.00
2023-03-16T01:34:21.104Z,0.00
2023-03-16T01:35:21.166Z,0.00
2023-03-16T01:36:21.152Z,0.00
2023-03-16T01:37:21.113Z,0.00
2023-03-16T01:38:21.069Z,0.00
2023-03-16T01:39:21.776Z,0.00
2023-03-16T01:40:21.097Z,0.00
2023-03-16T01:41:21.033Z,0.00
2023-03-16T01:42:21.018Z,0.00
2023-03-16T01:43:21.695Z,0.00
2023-03-16T01:44:21.028Z,0.00
2023-03-16T01:45:21.048Z,0.00
2023-03-16T01:46:21.014Z,0.00
2023-03-16T01:47:20.977Z,0.00
2023-03-16T01:48:23.649Z,0.00
2023-03-16T01:49:20.964Z,0.00
2023-03-16T01:50:20.965Z,0.00
2023-03-16T01:51:20.931Z,0.00
2023-03-16T01:52:20.908Z,0.00
2023-03-16T01:53:21.052Z,0.00
2023-03-16T01:54:20.980Z,0.00
2023-03-16T01:55:20.933Z,0.00
2023-03-16T01:56:20.899Z,0.00
2023-03-16T01:57:20.889Z,0.00
2023-03-16T01:58:20.943Z,0.00
2023-03-16T01:59:20.896Z,0.00
2023-03-16T02:00:20.840Z,0.00
2023-03-16T02:01:21.002Z,0.00
2023-03-16T02:02:20.861Z,0.00
2023-03-16T02:03:21.878Z,0.00
2023-03-16T02:04:21.496Z,0.00
2023-03-16T02:05:20.818Z,0.00
2023-03-16T02:06:20.782Z,0.00
2023-03-16T02:07:20.785Z,0.00
2023-03-16T02:08:21.692Z,0.00
2023-03-16T02:09:20.789Z,0.00
2023-03-16T02:10:20.762Z,0.00
2023-03-16T02:11:20.848Z,0.00
2023-03-16T02:12:20.731Z,0.00
2023-03-16T02:13:20.720Z,0.00
2023-03-16T02:14:20.730Z,0.00
2023-03-16T02:15:20.766Z,0.00
2023-03-16T02:16:20.853Z,0.00
2023-03-16T02:17:20.671Z,0.00
2023-03-16T02:18:20.996Z,0.00
2023-03-16T02:19:20.694Z,0.00
2023-03-16T02:20:20.746Z,0.00
2023-03-16T02:21:20.645Z,0.00
2023-03-16T02:22:20.713Z,0.00
2023-03-16T02:23:20.611Z,0.00
2023-03-16T02:24:20.817Z,0.00
2023-03-16T02:25:20.850Z,0.00
2023-03-16T02:26:20.816Z,0.00
2023-03-16T02:27:21.192Z,0.00
2023-03-16T02:28:20.625Z,0.00
2023-03-16T02:29:20.558Z,0.00
2023-03-16T02:30:20.621Z,0.00
2023-03-16T02:31:20.588Z,0.00
2023-03-16T02:32:20.630Z,0.00
2023-03-16T02:33:20.546Z,0.00
2023-03-16T02:34:20.555Z,0.00
2023-03-16T02:35:20.548Z,0.00
2023-03-16T02:36:20.593Z,0.00
2023-03-16T02:37:20.479Z,0.00
2023-03-16T02:38:20.567Z,0.00
2023-03-16T02:39:20.485Z,0.00
2023-03-16T02:40:20.495Z,0.00
2023-03-16T02:41:20.464Z,0.00
2023-03-16T02:42:20.435Z,0.00
2023-03-16T02:43:20.420Z,0.00
2023-03-16T02:44:20.412Z,0.00
2023-03-16T02:45:20.434Z,0.00
2023-03-16T02:46:20.454Z,0.00
2023-03-16T02:47:20.392Z,0.00
2023-03-16T02:48:20.383Z,0.00
2023-03-16T02:49:20.362Z,0.00
2023-03-16T02:50:20.348Z,0.00
2023-03-16T02:51:20.353Z,0.00
2023-03-16T02:52:20.340Z,0.00
2023-03-16T02:53:20.317Z,0.00
2023-03-16T02:54:20.313Z,0.00
2023-03-16T02:55:20.409Z,0.00
2023-03-16T02:56:20.307Z,0.00
2023-03-16T02:57:20.282Z,0.00
2023-03-16T02:58:20.270Z,0.00
2023-03-16T02:59:20.260Z,0.00
2023-03-16T03:00:20.282Z,0.00
2023-03-16T03:01:20.238Z,0.00
2023-03-16T03:02:20.276Z,0.00
2023-03-16T03:03:20.320Z,0.00
2023-03-16T03:04:20.204Z,0.00
2023-03-16T03:05:20.232Z,0.00
2023-03-16T03:06:20.230Z,0.00
2023-03-16T03:07:20.169Z,0.00
2023-03-16T03:08:20.179Z,0.00
2023-03-16T03:09:20.183Z,0.00
2023-03-16T03:10:20.192Z,0.00
2023-03-16T03:11:20.141Z,0.00
2023-03-16T03:12:20.127Z,0.00
2023-03-16T03:13:20.123Z,0.00
2023-03-16T03:14:20.133Z,0.00
2023-03-16T03:15:20.118Z,0.00
2023-03-16T03:16:20.281Z,0.00
2023-03-16T03:17:20.083Z,0.00
2023-03-16T03:18:20.071Z,0.00
2023-03-16T03:19:20.060Z,0.00
2023-03-16T03:20:20.085Z,0.00
2023-03-16T03:21:20.071Z,0.00
2023-03-16T03:22:20.033Z,0.00
2023-03-16T03:23:20.026Z,0.00
2023-03-16T03:24:20.028Z,0.00
2023-03-16T03:25:20.043Z,0.00
2023-03-16T03:26:19.997Z,0.00
2023-03-16T03:27:19.985Z,0.00
2023-03-16T03:28:19.959Z,0.00
2023-03-16T03:29:19.979Z,0.00
2023-03-16T03:30:19.958Z,0.00
2023-03-16T03:31:19.980Z,0.00
2023-03-16T03:32:19.946Z,0.00
2023-03-16T03:33:19.914Z,0.00
2023-03-16T03:34:19.936Z,0.00
2023-03-16T03:35:19.890Z,0.00
2023-03-16T03:36:19.880Z,0.00
2023-03-16T03:37:19.878Z,0.00
2023-03-16T03:38:19.862Z,0.00
2023-03-16T03:39:19.871Z,0.00
2023-03-16T03:40:19.849Z,0.00
2023-03-16T03:41:19.842Z,0.00
2023-03-16T03:42:19.837Z,0.00
2023-03-16T03:43:19.857Z,0.00
2023-03-16T03:44:19.832Z,0.00
2023-03-16T03:45:19.848Z,0.00
2023-03-16T03:46:19.866Z,0.00
2023-03-16T03:47:19.787Z,0.00
2023-03-16T03:48:19.763Z,0.00
2023-03-16T03:49:19.753Z,0.00
2023-03-16T03:50:19.770Z,0.00
2023-03-16T03:51:19.759Z,0.00
2023-03-16T03:52:19.738Z,0.00
2023-03-16T03:53:19.737Z,0.00
2023-03-16T03:54:19.718Z,0.00
2023-03-16T03:55:19.745Z,0.00
2023-03-16T03:56:19.688Z,0.00
2023-03-16T03:57:21.807Z,0.00
2023-03-16T03:58:19.687Z,0.00
2023-03-16T03:59:19.650Z,0.00
2023-03-16T04:00:19.675Z,0.00
2023-03-16T04:01:19.642Z,0.00
2023-03-16T04:02:19.705Z,0.00
2023-03-16T04:03:19.712Z,0.00
2023-03-16T04:04:19.608Z,0.00
2023-03-16T04:05:19.612Z,0.00
2023-03-16T04:06:19.599Z,0.00
2023-03-16T04:07:19.612Z,0.00
2023-03-16T04:08:19.561Z,0.00
2023-03-16T04:09:19.581Z,0.00
2023-03-16T04:10:19.563Z,0.00
2023-03-16T04:11:19.545Z,0.00
2023-03-16T04:12:19.566Z,0.00
2023-03-16T04:13:19.533Z,0.00
2023-03-16T04:14:19.559Z,0.00
2023-03-16T04:15:19.582Z,0.00
2023-03-16T04:16:19.532Z,0.00
2023-03-16T04:17:19.481Z,0.00
2023-03-16T04:18:19.481Z,0.00
2023-03-16T04:19:19.460Z,0.00
2023-03-16T04:20:19.508Z,0.00
2023-03-16T04:21:19.434Z,0.00
2023-03-16T04:22:19.431Z,0.00
2023-03-16T04:23:19.448Z,0.00
2023-03-16T04:24:19.483Z,0.00
2023-03-16T04:25:19.412Z,0.00
2023-03-16T04:26:19.400Z,0.00
2023-03-16T04:27:19.406Z,0.00
2023-03-16T04:28:19.391Z,0.00
2023-03-16T04:29:19.369Z,0.00
2023-03-16T04:30:19.373Z,0.00
2023-03-16T04:31:19.441Z,0.00
2023-03-16T04:32:19.344Z,0.00
2023-03-16T04:33:19.336Z,0.00
2023-03-16T04:34:19.331Z,0.00
2023-03-16T04:35:19.355Z,0.00
2023-03-16T04:36:19.326Z,0.00
2023-03-16T04:37:19.303Z,0.00
2023-03-16T04:38:19.274Z,0.00
2023-03-16T04:39:19.275Z,0.00
2023-03-16T04:40:19.273Z,0.00
2023-03-16T04:41:19.242Z,0.00
2023-03-16T04:42:19.257Z,0.00
2023-03-16T04:43:19.233Z,0.00
2023-03-16T04:44:19.249Z,0.00
2023-03-16T04:45:19.235Z,0.00
2023-03-16T04:46:19.248Z,0.00
2023-03-16T04:47:19.224Z,0.00
2023-03-16T04:48:19.188Z,0.00
2023-03-16T04:49:19.160Z,1.00
2023-03-16T04:50:19.114Z,1.00
2023-03-16T04:51:19.169Z,0.00
2023-03-16T04:52:19.145Z,0.00
2023-03-16T04:53:19.164Z,0.00
2023-03-16T04:54:19.138Z,0.00
2023-03-16T04:55:19.171Z,0.00
2023-03-16T04:56:19.070Z,3.00
2023-03-16T04:57:19.069Z,2.00
2023-03-16T04:58:19.045Z,5.00
2023-03-16T04:59:19.168Z,2.00
2023-03-16T05:00:19.050Z,2.00
2023-03-16T05:01:19.082Z,5.00
2023-03-16T05:02:18.988Z,8.00
2023-03-16T05:03:19.053Z,6.00
2023-03-16T05:04:19.924Z,6.00
2023-03-16T05:05:19.052Z,6.00
2023-03-16T05:06:18.982Z,14.00
2023-03-16T05:07:19.008Z,17.00
2023-03-16T05:08:18.930Z,20.00
2023-03-16T05:09:18.937Z,22.00
2023-03-16T05:10:18.932Z,28.00
2023-03-16T05:11:18.899Z,34.00
2023-03-16T05:12:18.913Z,37.00
2023-03-16T05:13:18.892Z,42.00
2023-03-16T05:14:18.895Z,53.00
2023-03-16T05:15:18.875Z,52.00
2023-03-16T05:16:18.915Z,64.00
2023-03-16T05:17:18.882Z,72.00
2023-03-16T05:18:18.830Z,80.00
2023-03-16T05:19:18.816Z,87.00
2023-03-16T05:20:18.876Z,98.00
2023-03-16T05:21:18.806Z,108.00
2023-03-16T05:22:18.814Z,120.00
2023-03-16T05:23:18.778Z,135.00
2023-03-16T05:24:18.782Z,144.00
2023-03-16T05:25:18.831Z,157.00
2023-03-16T05:26:18.752Z,172.00
2023-03-16T05:27:18.752Z,182.00
2023-03-16T05:28:18.750Z,197.00
2023-03-16T05:29:18.778Z,208.00
2023-03-16T05:30:18.747Z,226.00
2023-03-16T05:31:18.849Z,238.00
2023-03-16T05:32:18.692Z,253.00
2023-03-16T05:33:18.676Z,270.00
2023-03-16T05:34:18.684Z,288.00
2023-03-16T05:35:18.684Z,297.00
2023-03-16T05:36:18.700Z,310.00
2023-03-16T05:37:18.640Z,327.00
2023-03-16T05:38:18.638Z,349.00
2023-03-16T05:39:18.630Z,365.00
2023-03-16T05:40:18.656Z,380.00
2023-03-16T05:41:18.651Z,394.00
2023-03-16T05:42:18.623Z,411.00
2023-03-16T05:43:18.587Z,429.00
2023-03-16T05:44:18.588Z,446.00
2023-03-16T05:45:18.575Z,467.00
2023-03-16T05:46:20.752Z,482.00
2023-03-16T05:47:18.549Z,499.00
2023-03-16T05:48:18.569Z,518.00
2023-03-16T05:49:18.532Z,533.00
2023-03-16T05:50:18.542Z,549.00
2023-03-16T05:51:18.530Z,566.00
2023-03-16T05:52:18.502Z,580.00
2023-03-16T05:53:18.490Z,599.00
2023-03-16T05:54:18.502Z,614.00
2023-03-16T05:55:18.482Z,638.00
2023-03-16T05:56:18.482Z,652.00
2023-03-16T05:57:18.442Z,673.00
2023-03-16T05:58:18.452Z,683.00
2023-03-16T05:59:18.420Z,704.00
2023-03-16T06:00:18.467Z,721.00
2023-03-16T06:01:18.424Z,736.00
2023-03-16T06:02:18.788Z,753.00
2023-03-16T06:03:18.416Z,772.00
2023-03-16T06:04:18.459Z,786.00
2023-03-16T06:05:18.418Z,803.00
2023-03-16T06:06:18.379Z,815.00
2023-03-16T06:07:18.348Z,831.00
2023-03-16T06:08:18.342Z,848.00
2023-03-16T06:09:18.328Z,866.00
2023-03-16T06:10:18.364Z,878.00
2023-03-16T06:11:18.333Z,898.00
2023-03-16T06:12:18.341Z,906.00
2023-03-16T06:13:18.319Z,925.00
2023-03-16T06:14:18.285Z,936.00
2023-03-16T06:15:18.281Z,952.00
2023-03-16T06:16:18.458Z,970.00
2023-03-16T06:17:18.264Z,980.00
2023-03-16T06:18:18.263Z,995.00
2023-03-16T06:19:18.252Z,1006.00
2023-03-16T06:20:18.234Z,1020.00
2023-03-16T06:21:18.235Z,1029.00
2023-03-16T06:22:18.291Z,1048.00
2023-03-16T06:23:18.211Z,1062.00
2023-03-16T06:24:18.181Z,1075.00
2023-03-16T06:25:18.175Z,1087.00
2023-03-16T06:26:18.233Z,1097.00
2023-03-16T06:27:18.166Z,1108.00
2023-03-16T06:28:18.180Z,1119.00
2023-03-16T06:29:18.142Z,1127.00
2023-03-16T06:30:18.151Z,1138.00
2023-03-16T06:31:18.246Z,1149.00
2023-03-16T06:32:18.118Z,1163.00
2023-03-16T06:33:18.105Z,1178.00
2023-03-16T06:34:18.092Z,1187.00
2023-03-16T06:35:18.102Z,1199.00
2023-03-16T06:36:18.179Z,1210.00
2023-03-16T06:37:18.052Z,1222.00
2023-03-16T06:38:18.108Z,1231.00
2023-03-16T06:39:18.039Z,1243.00
2023-03-16T06:40:18.145Z,1256.00
2023-03-16T06:41:18.081Z,1274.00
2023-03-16T06:42:18.048Z,1286.00
2023-03-16T06:43:18.004Z,1302.00
2023-03-16T06:44:18.035Z,1316.00
2023-03-16T06:45:17.981Z,1324.00
2023-03-16T06:46:18.137Z,1341.00
2023-03-16T06:47:17.969Z,1359.00
2023-03-16T06:48:17.978Z,1377.00
2023-03-16T06:49:17.974Z,1401.00
2023-03-16T06:50:17.990Z,1415.00
2023-03-16T06:51:17.959Z,1414.00
2023-03-16T06:52:17.931Z,1430.00
2023-03-16T06:53:17.957Z,1470.00
2023-03-16T06:54:17.949Z,1535.00
2023-03-16T06:55:17.905Z,1583.00
2023-03-16T06:56:17.945Z,1601.00
2023-03-16T06:57:17.917Z,1600.00
2023-03-16T06:58:17.957Z,1676.00
2023-03-16T06:59:17.837Z,1809.00
2023-03-16T07:00:17.948Z,1936.00
2023-03-16T07:01:17.943Z,1989.00
2023-03-16T07:02:17.847Z,2040.00
2023-03-16T07:03:17.802Z,2075.00
2023-03-16T07:04:17.911Z,2124.00
2023-03-16T07:05:17.773Z,2167.00
2023-03-16T07:06:17.889Z,2216.00
2023-03-16T07:07:17.764Z,2273.00
2023-03-16T07:08:17.755Z,2323.00
2023-03-16T07:09:17.772Z,2382.00
2023-03-16T07:10:18.020Z,2460.00
2023-03-16T07:11:17.745Z,2480.00
2023-03-16T07:12:17.703Z,2482.00
2023-03-16T07:13:17.776Z,2568.00
2023-03-16T07:14:17.697Z,2606.00
2023-03-16T07:15:17.688Z,2605.00
2023-03-16T07:16:17.868Z,2610.00
2023-03-16T07:17:17.691Z,2540.00
2023-03-16T07:18:17.779Z,2614.00
2023-03-16T07:19:17.629Z,2506.00
2023-03-16T07:20:17.703Z,2570.00
2023-03-16T07:21:17.627Z,2868.00
2023-03-16T07:22:17.633Z,3018.00
2023-03-16T07:23:17.677Z,3116.00
2023-03-16T07:24:18.326Z,3073.00
2023-03-16T07:25:17.590Z,3063.00
2023-03-16T07:26:17.625Z,3153.00
2023-03-16T07:27:17.551Z,3007.00
2023-03-16T07:28:17.547Z,2867.00
2023-03-16T07:29:17.534Z,2891.00
2023-03-16T07:30:17.529Z,3126.00
2023-03-16T07:31:17.565Z,3427.00
2023-03-16T07:32:17.519Z,3505.00
2023-03-16T07:33:17.493Z,3375.00
2023-03-16T07:34:17.473Z,3306.00
2023-03-16T07:35:17.469Z,3341.00
2023-03-16T07:36:17.574Z,3526.00
2023-03-16T07:37:21.783Z,3318.00
2023-03-16T07:38:17.446Z,3107.00
2023-03-16T07:39:17.444Z,3532.00
2023-03-16T07:40:17.434Z,3408.00
2023-03-16T07:41:17.426Z,3356.00
2023-03-16T07:42:17.409Z,3861.00
2023-03-16T07:43:17.383Z,3963.00
2023-03-16T07:44:17.405Z,3774.00
2023-03-16T07:45:17.362Z,3821.00
2023-03-16T07:46:17.436Z,3871.00
2023-03-16T07:47:17.341Z,4264.00
2023-03-16T07:48:17.353Z,4567.00
2023-03-16T07:49:17.344Z,4865.00
2023-03-16T07:50:17.323Z,5246.00
2023-03-16T07:51:17.427Z,5443.00
2023-03-16T07:52:17.284Z,5533.00
2023-03-16T07:53:17.295Z,5652.00
2023-03-16T07:54:17.267Z,5693.00
2023-03-16T07:55:17.252Z,5811.00
2023-03-16T07:56:17.273Z,5859.00
2023-03-16T07:57:17.278Z,5826.00
2023-03-16T07:58:17.320Z,5793.00
2023-03-16T07:59:18.792Z,3898.00
2023-03-16T08:00:17.238Z,3973.00
2023-03-16T08:01:17.242Z,7711.00
2023-03-16T08:02:17.256Z,19571.00
2023-03-16T08:03:17.207Z,22485.00
2023-03-16T08:04:17.178Z,21299.00
2023-03-16T08:05:17.184Z,17993.00
2023-03-16T08:06:17.166Z,20914.00
2023-03-16T08:07:17.145Z,17921.00
2023-03-16T08:08:17.126Z,14409.00
2023-03-16T08:09:17.317Z,22488.00
2023-03-16T08:10:17.132Z,29429.00
2023-03-16T08:11:17.112Z,26473.00
2023-03-16T08:12:17.122Z,16359.00
2023-03-16T08:13:17.070Z,12600.00
2023-03-16T08:14:17.077Z,11701.00
2023-03-16T08:15:17.056Z,21611.00
2023-03-16T08:16:17.124Z,75443.00
2023-03-16T08:17:17.069Z,74351.00
2023-03-16T08:18:17.021Z,74819.00
2023-03-16T08:19:17.009Z,74116.00
2023-03-16T08:20:16.994Z,71829.00
2023-03-16T08:21:17.024Z,35735.00
2023-03-16T08:22:17.002Z,29843.00
2023-03-16T08:23:17.082Z,17307.00
2023-03-16T08:24:16.949Z,77602.00
2023-03-16T08:25:16.962Z,76905.00
2023-03-16T08:26:16.966Z,74876.00
2023-03-16T08:27:16.929Z,74854.00
2023-03-16T08:28:16.930Z,77922.00
2023-03-16T08:29:16.982Z,80996.00
2023-03-16T08:30:16.916Z,74920.00
2023-03-16T08:31:16.981Z,74765.00
2023-03-16T08:32:16.883Z,74147.00
2023-03-16T08:33:16.875Z,74136.00
2023-03-16T08:34:16.897Z,77169.00
2023-03-16T08:35:16.959Z,80607.00
2023-03-16T08:36:16.897Z,77217.00
2023-03-16T08:37:16.858Z,73791.00
2023-03-16T08:38:16.823Z,73192.00
2023-03-16T08:39:16.835Z,72821.00
2023-03-16T08:40:16.808Z,71468.00
2023-03-16T08:41:16.825Z,32970.00
2023-03-16T08:42:16.816Z,31448.00
2023-03-16T08:43:16.799Z,28956.00
2023-03-16T08:44:16.751Z,34138.00
2023-03-16T08:45:16.796Z,31935.00
2023-03-16T08:46:16.797Z,24704.00
2023-03-16T08:47:16.734Z,28949.00
2023-03-16T08:48:16.718Z,32223.00
2023-03-16T08:49:16.692Z,33442.00
2023-03-16T08:50:16.710Z,27192.00
2023-03-16T08:51:16.697Z,28999.00
2023-03-16T08:52:16.706Z,25550.00
2023-03-16T08:53:16.694Z,30551.00
2023-03-16T08:54:16.651Z,74223.00
2023-03-16T08:55:16.633Z,73417.00
2023-03-16T08:56:16.633Z,74010.00
2023-03-16T08:57:16.622Z,71710.00
2023-03-16T08:58:16.596Z,33391.00
2023-03-16T08:59:28.780Z,22497.00
2023-03-16T09:00:16.592Z,23254.00
2023-03-16T09:01:16.562Z,32544.00
2023-03-16T09:02:16.619Z,19345.00
2023-03-16T09:03:16.604Z,30353.00
2023-03-16T09:04:16.577Z,28315.00
2023-03-16T09:05:16.545Z,30541.00
2023-03-16T09:06:16.585Z,74386.00
2023-03-16T09:07:16.521Z,73380.00
2023-03-16T09:08:16.510Z,71128.00
2023-03-16T09:09:16.506Z,29003.00
2023-03-16T09:10:16.621Z,29764.00
2023-03-16T09:11:16.462Z,28055.00
2023-03-16T09:12:16.462Z,27314.00
2023-03-16T09:13:16.452Z,25565.00
2023-03-16T09:14:16.458Z,23529.00
2023-03-16T09:15:16.427Z,31486.00
2023-03-16T09:16:16.472Z,30626.00
2023-03-16T09:17:16.411Z,25710.00
2023-03-16T09:18:16.403Z,33797.00
2023-03-16T09:19:16.436Z,30309.00
2023-03-16T09:20:26.787Z,31397.00
2023-03-16T09:21:16.383Z,27404.00
2023-03-16T09:22:16.346Z,25492.00
2023-03-16T09:23:16.355Z,30133.00
2023-03-16T09:24:16.318Z,28116.00
2023-03-16T09:25:16.417Z,24054.00
2023-03-16T09:26:16.341Z,19914.00
2023-03-16T09:27:16.445Z,12528.00
2023-03-16T09:28:16.277Z,12309.00
2023-03-16T09:29:16.276Z,19873.00
2023-03-16T09:30:16.396Z,13912.00
2023-03-16T09:31:16.294Z,16855.00
2023-03-16T09:32:16.260Z,13254.00
2023-03-16T09:33:16.238Z,7293.00
2023-03-16T09:34:22.244Z,4953.00
2023-03-16T09:35:16.219Z,4468.00
2023-03-16T09:36:16.263Z,2239.00
2023-03-16T09:37:16.197Z,5818.00
2023-03-16T09:38:16.185Z,24387.00
2023-03-16T09:39:16.184Z,74046.00
2023-03-16T09:40:16.156Z,72981.00
2023-03-16T09:41:16.143Z,28591.00
2023-03-16T09:42:16.160Z,74322.00
2023-03-16T09:43:16.146Z,73392.00
2023-03-16T09:44:16.128Z,74565.00
2023-03-16T09:45:16.111Z,75702.00
2023-03-16T09:46:16.156Z,76771.00
2023-03-16T09:47:16.097Z,76254.00
2023-03-16T09:48:16.084Z,74359.00
2023-03-16T09:49:16.076Z,75270.00
2023-03-16T09:50:16.102Z,75037.00
2023-03-16T09:51:16.120Z,74474.00
2023-03-16T09:52:16.061Z,73220.00
2023-03-16T09:53:16.037Z,25058.00
2023-03-16T09:54:16.019Z,76479.00
2023-03-16T09:55:16.050Z,75181.00
2023-03-16T09:56:15.986Z,71423.00
2023-03-16T09:57:16.122Z,31318.00
2023-03-16T09:58:15.967Z,23859.00
2023-03-16T09:59:16.027Z,28847.00
2023-03-16T10:00:15.949Z,26714.00
2023-03-16T10:01:16.058Z,29581.00
2023-03-16T10:02:15.949Z,16605.00
2023-03-16T10:03:16.114Z,18385.00
2023-03-16T10:04:15.966Z,23952.00
2023-03-16T10:05:15.906Z,20685.00
2023-03-16T10:06:15.913Z,19598.00
2023-03-16T10:07:15.888Z,9199.00
2023-03-16T10:08:15.864Z,5205.00
2023-03-16T10:09:15.863Z,4643.00
2023-03-16T10:10:15.934Z,4214.00
2023-03-16T10:11:15.843Z,4317.00
2023-03-16T10:12:15.861Z,4139.00
2023-03-16T10:13:15.831Z,3939.00
2023-03-16T10:14:15.811Z,2050.00
2023-03-16T10:15:15.848Z,5742.00
2023-03-16T10:16:15.847Z,17682.00
2023-03-16T10:17:15.831Z,77230.00
2023-03-16T10:18:15.766Z,76599.00
2023-03-16T10:19:15.754Z,74390.00
2023-03-16T10:20:15.737Z,75858.00
2023-03-16T10:21:15.770Z,73241.00
2023-03-16T10:22:15.723Z,30779.00
2023-03-16T10:23:15.734Z,11379.00
2023-03-16T10:24:15.689Z,6497.00
2023-03-16T10:25:15.706Z,5577.00
2023-03-16T10:26:15.692Z,5265.00
2023-03-16T10:27:15.685Z,4623.00
2023-03-16T10:28:15.666Z,2759.00
2023-03-16T10:29:15.649Z,6994.00
2023-03-16T10:30:15.682Z,77491.00
2023-03-16T10:31:15.668Z,74393.00
2023-03-16T10:32:15.635Z,68745.00
2023-03-16T10:33:15.657Z,22286.00
2023-03-16T10:34:15.591Z,19051.00
2023-03-16T10:35:15.585Z,74640.00
2023-03-16T10:36:15.714Z,72588.00
2023-03-16T10:37:15.587Z,34720.00
2023-03-16T10:38:15.544Z,24420.00
2023-03-16T10:39:15.572Z,25819.00
2023-03-16T10:40:15.530Z,25445.00
2023-03-16T10:41:15.543Z,19644.00
2023-03-16T10:42:15.516Z,74168.00
2023-03-16T10:43:15.503Z,70916.00
2023-03-16T10:44:15.536Z,30478.00
2023-03-16T10:45:15.496Z,19833.00
2023-03-16T10:46:15.551Z,35082.00
2023-03-16T10:47:15.540Z,25884.00
2023-03-16T10:48:15.455Z,11814.00
2023-03-16T10:49:15.448Z,23626.00
2023-03-16T10:50:15.429Z,73034.00
2023-03-16T10:51:15.440Z,32641.00
2023-03-16T10:52:15.439Z,31829.00
2023-03-16T10:53:15.399Z,28936.00
2023-03-16T10:54:15.397Z,28916.00
2023-03-16T10:55:15.386Z,33686.00
2023-03-16T10:56:15.363Z,25078.00
2023-03-16T10:57:15.391Z,26220.00
2023-03-16T10:58:15.341Z,14364.00
2023-03-16T10:59:15.389Z,7607.00
2023-03-16T11:00:15.361Z,6739.00
2023-03-16T11:01:15.338Z,5857.00
2023-03-16T11:02:15.343Z,5604.00
2023-03-16T11:03:15.341Z,5146.00
2023-03-16T11:04:15.297Z,3789.00
2023-03-16T11:05:15.291Z,2272.00
2023-03-16T11:06:15.312Z,19240.00
2023-03-16T11:07:15.273Z,11161.00
2023-03-16T11:08:15.274Z,4661.00
2023-03-16T11:09:15.332Z,5049.00
2023-03-16T11:10:15.248Z,4645.00
2023-03-16T11:11:15.223Z,4557.00
2023-03-16T11:12:15.232Z,1850.00
2023-03-16T11:13:15.196Z,3847.00
2023-03-16T11:14:15.197Z,17434.00
2023-03-16T11:15:25.174Z,21204.00
2023-03-16T11:16:15.228Z,11210.00
2023-03-16T11:17:15.188Z,2370.00
2023-03-16T11:18:15.144Z,6138.00
2023-03-16T11:19:15.129Z,31858.00
2023-03-16T11:20:15.133Z,72615.00
2023-03-16T11:21:15.128Z,35839.00
2023-03-16T11:22:15.129Z,33415.00
2023-03-16T11:23:15.094Z,13955.00
2023-03-16T11:24:15.082Z,73535.00
2023-03-16T11:25:15.076Z,38781.00
2023-03-16T11:26:15.052Z,29748.00
2023-03-16T11:27:15.089Z,29259.00
2023-03-16T11:28:15.030Z,22804.00
2023-03-16T11:29:15.046Z,12874.00
2023-03-16T11:30:15.054Z,7258.00
2023-03-16T11:31:15.048Z,7519.00
2023-03-16T11:32:15.347Z,6939.00
2023-03-16T11:33:15.020Z,6774.00
2023-03-16T11:34:14.990Z,6291.00
2023-03-16T11:35:14.973Z,4141.00
2023-03-16T11:36:14.996Z,6134.00
2023-03-16T11:37:14.962Z,6823.00
2023-03-16T11:38:14.950Z,23363.00
2023-03-16T11:39:14.970Z,37339.00
2023-03-16T11:40:15.162Z,35955.00
2023-03-16T11:41:14.896Z,25701.00
2023-03-16T11:42:14.903Z,73114.00
2023-03-16T11:43:14.891Z,34496.00
2023-03-16T11:44:14.861Z,29897.00
2023-03-16T11:45:14.945Z,75562.00
2023-03-16T11:46:14.989Z,73249.00
2023-03-16T11:47:14.920Z,72433.00
2023-03-16T11:48:14.953Z,32440.00
2023-03-16T11:49:14.964Z,31961.00
2023-03-16T11:50:14.856Z,28845.00
2023-03-16T11:51:14.988Z,29298.00
2023-03-16T11:52:14.871Z,37988.00
2023-03-16T11:53:15.005Z,26597.00
2023-03-16T11:54:14.868Z,16748.00
2023-03-16T11:55:14.751Z,21239.00
2023-03-16T11:56:14.787Z,26181.00
2023-03-16T11:57:14.754Z,28890.00
2023-03-16T11:58:14.744Z,25861.00
2023-03-16T11:59:14.712Z,76533.00
2023-03-16T12:00:14.750Z,74433.00
2023-03-16T12:01:14.701Z,70412.00
2023-03-16T12:02:14.742Z,29895.00
2023-03-16T12:03:14.778Z,22098.00
2023-03-16T12:04:14.693Z,35879.00
2023-03-16T12:05:14.652Z,32589.00
2023-03-16T12:06:22.965Z,24417.00
2023-03-16T12:07:14.656Z,22422.00
2023-03-16T12:08:14.623Z,38245.00
2023-03-16T12:09:14.642Z,22010.00
2023-03-16T12:10:14.598Z,11498.00
2023-03-16T12:11:14.594Z,7989.00
2023-03-16T12:12:14.564Z,6164.00
2023-03-16T12:13:14.568Z,2854.00
2023-03-16T12:14:14.576Z,5724.00
2023-03-16T12:15:14.587Z,24905.00
2023-03-16T12:16:14.557Z,31020.00
2023-03-16T12:17:14.515Z,27782.00
2023-03-16T12:18:14.498Z,30765.00
2023-03-16T12:19:14.524Z,20425.00
2023-03-16T12:20:14.571Z,10852.00
2023-03-16T12:21:14.479Z,17302.00
2023-03-16T12:22:14.495Z,25490.00
2023-03-16T12:23:14.460Z,29225.00
2023-03-16T12:24:14.442Z,29460.00
2023-03-16T12:25:14.435Z,28634.00
2023-03-16T12:26:14.437Z,30386.00
2023-03-16T12:27:14.439Z,22347.00
2023-03-16T12:28:14.415Z,77902.00
2023-03-16T12:29:14.392Z,75747.00